Aérodrome :
LOGIN :

S'inscrire | Disclaimer

   EN    FR    IT 

 










Légende :    VFR   VFR Marginal   IFR   IFR Intensif   IFR Très Intensif
Visi : 
Plafond : 
>= 8 km
>= 3000ft
5 à 8 km
1000 à 3000 ft
1500m à 5 km
500 à 1000 ft
800 à 1500m
200 à 500 ft
< 800m
< 200 ft
Symboles :   Orages  Brouillard  Fortes neiges  Fortes précipitations  Vent > 20 kt
SIGMETs :   Divers  Orages  Givrage  Turbulence  Onde Orograph.  Cendres Volcan.







- Altitude de l'aérodrome : 788 ft
- Code IATA : DCM
- Voir les cartes d'approche


LFCK - Castres-Mazamet

DERNIER METAR :
  • 221800Z AUTO 27027KT 230V290 9999 BKN017/// OVC022/// ///TCU 12/10 Q1024 TEMPO OVC014 BECMG 28018G30KT

METARs EXPIRÉS :
  • 221730Z AUTO 27022KT 9999 OVC016 12/10 Q1024 TEMPO OVC014 BECMG 28018G30KT
  • 221700Z AUTO 27021KT 9999 OVC013 12/10 Q1024 TEMPO 28025G40KT 4000 -RA OVC009
  • 221630Z AUTO 27022KT 9999 BKN009 OVC013 12/10 Q1024 TEMPO 28025G40KT 4000 -RA OVC014
  • 221600Z AUTO 26020KT 9999 BKN008 OVC012 12/10 Q1024 TEMPO 28025G40KT 4000 -RA OVC014
  • 221530Z AUTO 27019KT 9999 BKN010 OVC016 12/10 Q1024 TEMPO 28025G40KT 4000 -RA

TAF TAF LFCK
Valide du 22 à 18h jusqu'au 23 à 03h UTC


221700Z 2218/2303 28018G30KT 9999 OVC020
PROB30
TEMPO 2218/2220 -RA OVC014
PROB30
TEMPO 2218/2219 28025G40KT
BECMG 2221/2223 29015KT
BECMG 2302/2303 29005KT OVC009
Pas de NOTAMs connus pour ce terrain.
2 SIGMETs publiés pour la FIR Bordeaux (LFBB) :
 
Onde orographique forte
LFBB SIGMET 5 VALID 221800/222100 LFPW
LFBB BORDEAUX FIR/UIR SEV MTW FCST SE OF LINE N4330 E00245 - N4230 E00145 SFC/FL280 STNR NC=
Turbulence forte
LFBB SIGMET 3 VALID 221500/221800 LFPW
LFBB BORDEAUX FIR/UIR SEV TURB FCST SE OF LINE N4630 E00300 - N4230 E00115 SFC/FL080 STNR NC=



MET'MAP, la Météo Aéronautique d'un coup d'oeil ! - Copyright ORBIFLY Décembre 2007 - Disclaimer

ORBIFLY MET'MAP TEAM :

Programmation & Développement : Alexandra Zaïnal
Conception & Développement : Baudouin d'Aumeries
Co-Programmation & Développement : Marc-Olivier Méhu
Soutien technique & logistique : Manuel Goepfert

Contact : metmap@orbifly.com




SOURCES & CREDITS :

   NOAA